Time;durP1;ratioP1;P1;durP2;ratioP2;P2;SDS_P1;SDS_P2;PMS_P1;PMS_P2;Temp;Humidity;BMP_temperature;BMP_pressure;BME280_temperature;BME280_humidity;BME280_pressure;Samples;Min_cycle;Max_cycle;Signal;HPM_P1;HPM_P2
2022/01/28 00:00:14;;;;;;;20.65;14.60;;;6.30;77.70;;;-142.21;100.00;112049.66;6245007;23;20470;-74
2022/01/28 00:05:26;;;;;;;18.75;13.27;;;6.30;77.80;;;-142.21;100.00;112049.66;6245421;23;20162;-75
2022/01/28 00:07:56;;;;;;;18.85;13.57;;;6.30;77.60;;;-142.21;100.00;112049.66;6245047;23;20251;-76
2022/01/28 00:10:27;;;;;;;20.70;13.85;;;6.30;78.00;;;-142.21;100.00;112049.66;6245406;23;20205;-73
2022/01/28 00:13:14;;;;;;;16.77;13.13;;;6.40;78.10;;;-142.21;100.00;112049.66;6245335;23;20208;-76
2022/01/28 00:16:00;;;;;;;19.10;13.80;;;6.40;77.90;;;-142.21;100.00;112049.66;6245299;23;20757;-77
2022/01/28 00:18:42;;;;;;;18.75;13.57;;;6.30;78.00;;;-142.21;100.00;112049.66;6245468;23;20598;-77
2022/01/28 00:40:24;;;;;;;18.85;13.52;;;6.40;77.90;;;-142.21;100.00;112049.66;6243921;23;20246;-75
2022/01/28 00:42:51;;;;;;;18.70;14.38;;;6.40;77.90;;;-142.21;100.00;112049.66;6245278;23;20693;-75
2022/01/28 00:45:19;;;;;;;19.58;13.88;;;6.50;78.10;;;-142.21;100.00;112049.66;6244678;22;20228;-76
2022/01/28 00:47:48;;;;;;;18.23;13.70;;;6.50;78.00;;;-142.21;100.00;112049.66;6243932;23;20184;-76
2022/01/28 00:50:16;;;;;;;18.17;14.15;;;6.50;77.90;;;-142.21;100.00;112049.66;6245192;22;20462;-74
2022/01/28 00:52:44;;;;;;;17.45;13.70;;;6.50;78.20;;;-142.21;100.00;112049.66;6244401;23;20441;-77
2022/01/28 00:55:12;;;;;;;18.65;14.23;;;6.50;78.30;;;-142.21;100.00;112049.66;6244350;23;20610;-76
2022/01/28 00:57:41;;;;;;;20.33;14.18;;;6.50;78.20;;;-142.21;100.00;112049.66;6244380;23;20227;-77
2022/01/28 01:00:12;;;;;;;17.98;13.45;;;6.60;78.30;;;-142.21;100.00;112049.66;6245243;23;20239;-74
2022/01/28 01:02:40;;;;;;;20.13;14.18;;;6.60;78.00;;;-142.21;100.00;112049.66;6244365;23;20172;-75
2022/01/28 01:05:09;;;;;;;20.30;14.00;;;6.60;77.90;;;-142.21;100.00;112049.66;6245187;23;20257;-75
2022/01/28 01:07:40;;;;;;;19.27;14.18;;;6.60;78.10;;;-142.21;100.00;112049.66;6245553;23;20185;-77
2022/01/28 01:10:09;;;;;;;18.10;13.95;;;6.60;78.00;;;-142.21;100.00;112049.66;6245011;22;20212;-75
2022/01/28 01:12:42;;;;;;;18.45;13.10;;;6.60;78.00;;;-142.21;100.00;112049.66;6217797;23;20490;-76
2022/01/28 01:15:16;;;;;;;18.60;13.77;;;6.70;77.90;;;-142.21;100.00;112049.66;6249431;23;20509;-77
2022/01/28 01:17:53;;;;;;;16.33;12.23;;;6.60;78.00;;;-142.21;100.00;112049.66;6258815;23;20164;-77
2022/01/28 01:20:39;;;;;;;17.33;13.43;;;6.80;78.10;;;-142.21;100.00;112049.66;6246982;23;20177;-77
2022/01/28 01:23:09;;;;;;;16.98;12.75;;;6.70;77.80;;;-142.21;100.00;112049.66;6252705;23;20173;-78
2022/01/28 01:25:46;;;;;;;17.70;13.02;;;6.60;77.80;;;-142.21;100.00;112049.66;6260075;23;20174;-76
2022/01/28 01:28:17;;;;;;;17.65;12.85;;;6.60;78.40;;;-142.21;100.00;112049.66;6253069;22;20166;-75
2022/01/28 01:30:46;;;;;;;17.13;13.15;;;6.60;78.40;;;-142.21;100.00;112049.66;6245208;22;20179;-76
2022/01/28 01:33:17;;;;;;;18.87;14.27;;;6.60;78.50;;;-142.21;100.00;112049.66;6244120;23;20220;-75
2022/01/28 01:35:45;;;;;;;17.15;13.05;;;6.60;78.30;;;-142.21;100.00;112049.66;6245211;22;20774;-77
2022/01/28 01:38:12;;;;;;;19.25;14.10;;;6.60;78.20;;;-142.21;100.00;112049.66;6244044;23;20462;-76
2022/01/28 01:40:46;;;;;;;18.65;13.30;;;6.70;78.10;;;-142.21;100.00;112049.66;6244899;23;20197;-75
2022/01/28 01:43:20;;;;;;;17.15;12.85;;;6.70;78.20;;;-142.21;100.00;112049.66;6244018;22;20630;-75
2022/01/28 01:46:11;;;;;;;17.85;13.75;;;6.80;78.10;;;-142.21;100.00;112049.66;6244922;23;20197;-75
2022/01/28 01:54:17;;;;;;;18.70;14.27;;;6.70;78.20;;;-142.21;100.00;112049.66;6244388;23;20287;-80
2022/01/28 01:56:45;;;;;;;15.80;12.82;;;6.80;78.40;;;-142.21;100.00;112049.66;6245053;23;20182;-74
2022/01/28 01:59:12;;;;;;;19.45;13.48;;;6.80;78.30;;;-142.21;100.00;112049.66;6246489;23;20227;-75
2022/01/28 02:01:41;;;;;;;17.98;13.35;;;6.80;78.10;;;-142.21;100.00;112049.66;6244863;23;20181;-75
2022/01/28 02:04:08;;;;;;;17.20;13.20;;;6.80;78.00;;;-142.21;100.00;112049.66;6246249;22;20173;-77
2022/01/28 02:06:38;;;;;;;17.33;13.55;;;6.90;77.90;;;-142.21;100.00;112049.66;6245976;22;20256;-76
2022/01/28 02:09:06;;;;;;;16.83;13.27;;;6.90;77.90;;;-142.21;100.00;112049.66;6246273;22;20276;-76
2022/01/28 02:11:33;;;;;;;18.80;13.90;;;6.90;77.70;;;-142.21;100.00;112049.66;6246081;23;20435;-76
2022/01/28 02:14:02;;;;;;;17.38;13.98;;;6.90;77.50;;;-142.21;100.00;112049.66;6246299;23;20185;-76
2022/01/28 02:16:29;;;;;;;19.92;14.32;;;6.90;77.60;;;-142.21;100.00;112049.66;6245938;23;20169;-79
2022/01/28 02:18:58;;;;;;;18.27;13.43;;;7.00;77.50;;;-142.21;100.00;112049.66;6245497;23;20173;-76
2022/01/28 02:21:27;;;;;;;19.02;14.07;;;6.90;77.50;;;-142.21;100.00;112049.66;6245928;23;20420;-76
2022/01/28 02:23:59;;;;;;;17.95;13.30;;;6.90;77.60;;;-142.21;100.00;112049.66;6245963;23;20181;-74
2022/01/28 02:26:26;;;;;;;19.00;14.80;;;6.90;77.90;;;-142.21;100.00;112049.66;6246537;23;20170;-75
2022/01/28 02:28:56;;;;;;;18.15;14.35;;;6.90;78.00;;;-142.21;100.00;112049.66;6245294;23;20467;-76
2022/01/28 02:31:27;;;;;;;18.27;13.52;;;6.80;78.10;;;-142.21;100.00;112049.66;6246364;23;20169;-75
2022/01/28 02:33:57;;;;;;;18.70;14.65;;;6.90;78.20;;;-142.21;100.00;112049.66;6245656;23;20162;-75
2022/01/28 02:36:27;;;;;;;18.63;13.57;;;6.90;78.10;;;-142.21;100.00;112049.66;6245940;22;20166;-75
2022/01/28 02:38:54;;;;;;;17.35;13.18;;;6.90;78.00;;;-142.21;100.00;112049.66;6245542;23;20173;-74
2022/01/28 02:41:24;;;;;;;18.35;14.13;;;7.00;78.10;;;-142.21;100.00;112049.66;6246039;23;20181;-76
2022/01/28 02:44:05;;;;;;;17.98;14.15;;;6.90;77.90;;;-142.21;100.00;112049.66;6245915;23;20177;-74
2022/01/28 02:46:35;;;;;;;17.38;13.20;;;6.90;77.80;;;-142.21;100.00;112049.66;6246562;23;20181;-74
2022/01/28 02:49:05;;;;;;;21.13;14.60;;;6.90;77.80;;;-142.21;100.00;112049.66;6245313;23;20217;-74
2022/01/28 02:51:35;;;;;;;17.02;13.07;;;7.00;77.70;;;-142.21;100.00;112049.66;6246259;22;20219;-76
2022/01/28 02:54:12;;;;;;;18.98;14.48;;;7.00;77.90;;;-142.21;100.00;112049.66;6245700;23;20177;-76
2022/01/28 02:56:47;;;;;;;21.48;14.88;;;7.00;77.90;;;-142.21;100.00;112049.66;6246138;22;20196;-79
2022/01/28 02:59:14;;;;;;;20.33;14.60;;;7.00;78.00;;;-142.21;100.00;112049.66;6245472;23;20181;-75
2022/01/28 03:01:42;;;;;;;21.83;15.45;;;7.00;77.90;;;-142.21;100.00;112049.66;6246190;23;20227;-75
2022/01/28 03:04:14;;;;;;;19.73;13.80;;;7.00;78.00;;;-142.21;100.00;112049.66;6245753;23;20614;-77
2022/01/28 03:06:43;;;;;;;21.45;14.55;;;7.00;78.00;;;-142.21;100.00;112049.66;6245449;23;20268;-76
2022/01/28 03:09:16;;;;;;;18.55;14.70;;;7.00;78.10;;;-142.21;100.00;112049.66;6245092;23;20275;-75
2022/01/28 03:11:46;;;;;;;19.30;14.65;;;7.00;77.90;;;-142.21;100.00;112049.66;6245741;23;20180;-76
2022/01/28 03:14:32;;;;;;;18.48;14.27;;;7.00;77.90;;;-142.21;100.00;112049.66;6245675;22;20177;-75
2022/01/28 03:17:08;;;;;;;18.15;14.40;;;7.00;78.00;;;-142.21;100.00;112049.66;6245876;23;20558;-75
2022/01/28 03:19:49;;;;;;;18.00;13.80;;;7.00;77.70;;;-142.21;100.00;112049.66;6244625;22;20498;-75
2022/01/28 03:22:18;;;;;;;18.65;13.90;;;7.00;77.70;;;-142.21;100.00;112049.66;6245579;22;20181;-75
2022/01/28 03:24:48;;;;;;;19.88;14.43;;;7.00;77.80;;;-142.21;100.00;112049.66;6244866;23;20174;-76
2022/01/28 03:27:29;;;;;;;19.40;14.98;;;6.90;77.70;;;-142.21;100.00;112049.66;6246024;23;20169;-75
2022/01/28 03:29:56;;;;;;;19.73;14.80;;;6.90;77.70;;;-142.21;100.00;112049.66;6245105;22;20646;-75
2022/01/28 03:32:23;;;;;;;21.02;14.98;;;6.90;78.20;;;-142.21;100.00;112049.66;6245434;23;20222;-76
2022/01/28 03:34:54;;;;;;;18.80;14.68;;;6.80;78.50;;;-142.21;100.00;112049.66;6244429;23;20626;-75
2022/01/28 03:37:23;;;;;;;19.20;15.05;;;6.80;78.50;;;-142.21;100.00;112049.66;6245751;23;20181;-78
2022/01/28 03:39:50;;;;;;;17.45;13.98;;;6.70;78.50;;;-142.21;100.00;112049.66;6244726;22;20708;-76
2022/01/28 03:42:17;;;;;;;21.33;15.88;;;6.80;78.70;;;-142.21;100.00;112049.66;6245088;23;20185;-76
2022/01/28 03:44:45;;;;;;;21.08;15.45;;;6.80;78.70;;;-142.21;100.00;112049.66;6244526;23;20184;-75
2022/01/28 03:47:12;;;;;;;22.55;14.93;;;6.80;78.80;;;-142.21;100.00;112049.66;6245342;23;20238;-74
2022/01/28 03:49:39;;;;;;;23.05;15.68;;;6.90;79.10;;;-142.21;100.00;112049.66;6245348;23;20201;-75
2022/01/28 03:52:07;;;;;;;21.13;14.77;;;6.80;78.80;;;-142.21;100.00;112049.66;6245001;23;20208;-76
2022/01/28 03:54:36;;;;;;;21.10;15.17;;;6.70;79.30;;;-142.21;100.00;112049.66;6245179;23;20638;-75
2022/01/28 03:57:06;;;;;;;21.77;15.63;;;6.70;79.10;;;-142.21;100.00;112049.66;6244541;23;20881;-75
2022/01/28 03:59:34;;;;;;;20.75;15.07;;;6.80;79.40;;;-142.21;100.00;112049.66;6245353;23;20162;-75
2022/01/28 04:02:02;;;;;;;22.20;15.30;;;6.90;79.30;;;-142.21;100.00;112049.66;6244478;22;20200;-75
2022/01/28 04:12:45;;;;;;;23.13;15.63;;;6.70;80.20;;;-142.21;100.00;112049.66;6244962;23;20161;-75
2022/01/28 04:15:35;;;;;;;22.92;15.82;;;6.70;80.00;;;-142.21;100.00;112049.66;6244982;23;20241;-76
2022/01/28 04:18:02;;;;;;;25.13;15.93;;;6.60;80.10;;;-142.21;100.00;112049.66;6244774;23;20169;-75
2022/01/28 04:20:31;;;;;;;23.55;16.42;;;6.70;80.10;;;-142.21;100.00;112049.66;6244421;23;20396;-75
2022/01/28 04:22:58;;;;;;;24.55;15.68;;;6.70;80.00;;;-142.21;100.00;112049.66;6245376;23;20227;-75
2022/01/28 04:25:27;;;;;;;25.88;17.30;;;6.70;79.80;;;-142.21;100.00;112049.66;6244237;22;20177;-77
2022/01/28 04:27:54;;;;;;;24.08;15.82;;;6.60;79.80;;;-142.21;100.00;112049.66;6245286;23;20239;-76
2022/01/28 04:30:21;;;;;;;21.95;15.95;;;6.70;80.00;;;-142.21;100.00;112049.66;6244762;23;20687;-76
2022/01/28 04:32:51;;;;;;;21.65;15.38;;;6.70;79.90;;;-142.21;100.00;112049.66;6244511;23;20242;-75
2022/01/28 04:35:18;;;;;;;24.25;16.35;;;6.70;80.00;;;-142.21;100.00;112049.66;6244771;23;20626;-75
2022/01/28 04:37:56;;;;;;;24.67;16.25;;;6.70;80.10;;;-142.21;100.00;112049.66;6244663;23;20181;-75
2022/01/28 04:40:27;;;;;;;23.15;15.90;;;6.70;80.00;;;-142.21;100.00;112049.66;6244992;23;20200;-75
2022/01/28 04:43:08;;;;;;;23.45;16.25;;;6.70;80.00;;;-142.21;100.00;112049.66;6244467;23;20161;-77
2022/01/28 04:45:43;;;;;;;25.08;17.23;;;6.60;80.10;;;-142.21;100.00;112049.66;6244997;23;20244;-75
2022/01/28 04:48:20;;;;;;;23.30;15.18;;;6.60;79.80;;;-142.21;100.00;112049.66;6244603;23;20207;-75
2022/01/28 04:51:02;;;;;;;22.98;15.88;;;6.60;79.70;;;-142.21;100.00;112049.66;6244702;22;20505;-73
2022/01/28 04:53:41;;;;;;;24.70;16.50;;;6.70;79.90;;;-142.21;100.00;112049.66;6244839;23;20173;-75
2022/01/28 04:56:32;;;;;;;23.17;15.50;;;6.70;80.00;;;-142.21;100.00;112049.66;6244201;23;20171;-75
2022/01/28 05:02:18;;;;;;;21.58;15.68;;;6.60;79.40;;;-142.21;100.00;112049.66;6222059;22;20169;-75
2022/01/28 05:05:01;;;;;;;23.92;17.05;;;6.60;80.00;;;-142.21;100.00;112049.66;6244732;22;20173;-76
2022/01/28 05:07:42;;;;;;;24.77;15.52;;;6.50;79.80;;;-142.21;100.00;112049.66;6259511;22;20180;-76
2022/01/28 05:16:29;;;;;;;23.33;15.20;;;6.60;80.20;;;-142.21;100.00;112049.66;6201596;23;20174;-76
2022/01/28 05:25:03;;;;;;;24.73;15.75;;;6.70;79.90;;;-142.21;100.00;112049.66;6244201;23;20534;-75
2022/01/28 05:27:40;;;;;;;24.13;16.27;;;6.60;79.80;;;-142.21;100.00;112049.66;6243923;22;20482;-75
2022/01/28 05:30:09;;;;;;;24.02;16.55;;;6.70;79.90;;;-142.21;100.00;112049.66;6244433;23;20197;-75
2022/01/28 05:32:38;;;;;;;23.90;15.80;;;6.70;80.20;;;-142.21;100.00;112049.66;6245040;22;20177;-76
2022/01/28 05:35:07;;;;;;;24.85;16.00;;;6.70;80.00;;;-142.21;100.00;112049.66;6246551;23;20607;-75
2022/01/28 05:37:34;;;;;;;25.55;16.65;;;6.70;80.10;;;-142.21;100.00;112049.66;6246131;23;20177;-76
2022/01/28 05:40:02;;;;;;;23.42;16.02;;;6.70;79.70;;;-142.21;100.00;112049.66;6246899;22;20248;-76
2022/01/28 05:42:29;;;;;;;25.58;16.40;;;6.70;79.80;;;-142.21;100.00;112049.66;6247020;22;20492;-74
2022/01/28 05:44:57;;;;;;;24.30;16.30;;;6.70;79.90;;;-142.21;100.00;112049.66;6245569;23;20614;-76
2022/01/28 05:47:25;;;;;;;25.33;16.92;;;6.70;79.90;;;-142.21;100.00;112049.66;6246613;23;20223;-75
2022/01/28 05:49:53;;;;;;;25.55;16.73;;;6.60;79.80;;;-142.21;100.00;112049.66;6245667;23;20253;-77
2022/01/28 05:52:22;;;;;;;24.77;16.45;;;6.60;79.80;;;-142.21;100.00;112049.66;6246527;23;20184;-76
2022/01/28 05:54:49;;;;;;;28.40;18.03;;;6.60;80.10;;;-142.21;100.00;112049.66;6245502;23;20173;-75
2022/01/28 05:57:16;;;;;;;26.33;17.05;;;6.60;79.80;;;-142.21;100.00;112049.66;6246795;22;20423;-74
2022/01/28 05:59:44;;;;;;;24.67;17.25;;;6.60;80.00;;;-142.21;100.00;112049.66;6246005;23;20197;-75
2022/01/28 06:02:11;;;;;;;29.20;17.27;;;6.60;80.00;;;-142.21;100.00;112049.66;6245435;23;20332;-74
2022/01/28 06:04:39;;;;;;;24.67;17.15;;;6.50;79.80;;;-142.21;100.00;112049.66;6246297;23;20197;-76
2022/01/28 06:07:11;;;;;;;26.63;17.98;;;6.60;79.80;;;-142.21;100.00;112049.66;6245675;23;20177;-80
2022/01/28 06:09:38;;;;;;;27.67;16.95;;;6.60;80.10;;;-142.21;100.00;112049.66;6246413;23;20570;-75
2022/01/28 06:12:07;;;;;;;28.20;17.80;;;6.60;80.00;;;-142.21;100.00;112049.66;6245455;23;20176;-75
2022/01/28 06:14:34;;;;;;;27.73;17.75;;;6.60;80.40;;;-142.21;100.00;112049.66;6246124;23;20180;-76
2022/01/28 06:17:02;;;;;;;27.15;17.23;;;6.70;80.40;;;-142.21;100.00;112049.66;6245955;23;20185;-76
2022/01/28 06:19:29;;;;;;;29.17;18.02;;;6.60;80.40;;;-142.21;100.00;112049.66;6245014;23;20200;-76
2022/01/28 06:21:56;;;;;;;29.77;17.70;;;6.70;80.40;;;-142.21;100.00;112049.66;6246172;23;20202;-77
2022/01/28 06:24:25;;;;;;;26.95;17.05;;;6.70;80.40;;;-142.21;100.00;112049.66;6245597;22;20177;-78
2022/01/28 06:26:52;;;;;;;28.50;17.48;;;6.70;80.30;;;-142.21;100.00;112049.66;6246098;23;20618;-77
2022/01/28 06:29:19;;;;;;;31.27;18.42;;;6.70;80.00;;;-142.21;100.00;112049.66;6247264;23;20536;-76
2022/01/28 06:31:47;;;;;;;29.30;17.80;;;6.80;80.10;;;-142.21;100.00;112049.66;6247914;23;20193;-78
2022/01/28 06:35:28;;;;;;;28.63;18.27;;;6.80;80.10;;;-142.21;100.00;112049.66;6247543;23;20173;-77
2022/01/28 06:37:55;;;;;;;28.10;17.83;;;6.80;80.10;;;-142.21;100.00;112049.66;6212796;22;20180;-80
2022/01/28 06:40:24;;;;;;;30.08;17.95;;;6.90;80.10;;;-142.21;100.00;112049.66;6245586;23;20197;-80
2022/01/28 06:42:51;;;;;;;25.88;17.15;;;6.90;80.20;;;-142.21;100.00;112049.66;6245771;23;20531;-78
2022/01/28 06:45:21;;;;;;;25.05;16.80;;;6.80;80.00;;;-142.21;100.00;112049.66;6246080;23;20173;-75
2022/01/28 06:47:49;;;;;;;27.10;17.30;;;6.90;80.20;;;-142.21;100.00;112049.66;6246127;23;20648;-78
2022/01/28 06:50:16;;;;;;;26.10;17.35;;;6.90;80.00;;;-142.21;100.00;112049.66;6245862;23;20224;-80
2022/01/28 06:52:44;;;;;;;25.85;17.70;;;6.90;80.00;;;-142.21;100.00;112049.66;6245507;23;20181;-77
2022/01/28 06:55:14;;;;;;;25.33;17.60;;;6.90;79.90;;;-142.21;100.00;112049.66;6246256;22;20223;-76
2022/01/28 06:57:42;;;;;;;27.92;18.75;;;6.90;80.40;;;-142.21;100.00;112049.66;6245875;23;20202;-78
2022/01/28 07:00:13;;;;;;;29.05;18.35;;;6.90;79.80;;;-142.21;100.00;112049.66;6246492;23;20204;-79
2022/01/28 07:02:40;;;;;;;27.23;17.27;;;6.90;79.90;;;-142.21;100.00;112049.66;6246313;23;20536;-77
2022/01/28 07:05:09;;;;;;;27.70;17.08;;;7.00;79.90;;;-142.21;100.00;112049.66;6246052;23;20188;-79
2022/01/28 07:07:36;;;;;;;26.08;17.13;;;7.00;79.90;;;-142.21;100.00;112049.66;6246173;23;20208;-78
2022/01/28 07:10:05;;;;;;;28.80;17.08;;;7.00;79.40;;;-142.21;100.00;112049.66;6244953;23;20568;-78
2022/01/28 07:12:32;;;;;;;27.10;17.20;;;7.10;79.50;;;-142.21;100.00;112049.66;6246156;23;20247;-77
2022/01/28 07:15:01;;;;;;;24.23;16.50;;;7.10;79.20;;;-142.21;100.00;112049.66;6245681;23;20455;-79
2022/01/28 07:17:28;;;;;;;23.42;16.20;;;7.10;79.10;;;-142.21;100.00;112049.66;6246236;23;20205;-81
2022/01/28 07:19:55;;;;;;;23.40;16.95;;;7.10;79.10;;;-142.21;100.00;112049.66;6245505;22;20228;-81
2022/01/28 07:22:22;;;;;;;25.25;17.30;;;7.10;78.90;;;-142.21;100.00;112049.66;6245735;23;20177;-79
2022/01/28 07:24:50;;;;;;;24.35;16.83;;;7.10;78.70;;;-142.21;100.00;112049.66;6246050;23;20248;-77
2022/01/28 07:27:19;;;;;;;26.48;16.35;;;7.10;78.70;;;-142.21;100.00;112049.66;6245292;22;20208;-81
2022/01/28 07:29:47;;;;;;;23.20;16.60;;;7.10;78.80;;;-142.21;100.00;112049.66;6246661;23;20183;-80
2022/01/28 07:32:16;;;;;;;23.15;16.17;;;7.00;78.80;;;-142.21;100.00;112049.66;6246060;23;20419;-78
2022/01/28 07:34:44;;;;;;;24.00;17.00;;;7.00;79.00;;;-142.21;100.00;112049.66;6245337;23;20232;-76
2022/01/28 07:37:11;;;;;;;26.88;17.98;;;7.00;79.00;;;-142.21;100.00;112049.66;6245176;23;20819;-77
2022/01/28 07:39:39;;;;;;;25.38;17.17;;;6.90;78.90;;;-142.21;100.00;112049.66;6245164;23;20201;-79
2022/01/28 07:42:08;;;;;;;29.35;17.38;;;7.10;79.00;;;-142.21;100.00;112049.66;6245805;22;20154;-77
2022/01/28 07:44:36;;;;;;;25.17;16.63;;;7.00;78.90;;;-142.21;100.00;112049.66;6246067;23;20204;-78
2022/01/28 07:47:04;;;;;;;23.40;15.67;;;7.10;78.80;;;-142.21;100.00;112049.66;6246046;22;20193;-77
2022/01/28 07:49:36;;;;;;;24.77;16.33;;;7.10;78.80;;;-142.21;100.00;112049.66;6245557;22;20491;-78
2022/01/28 07:52:05;;;;;;;23.02;16.80;;;7.00;78.80;;;-142.21;100.00;112049.66;6245894;23;20292;-78
2022/01/28 07:54:32;;;;;;;23.83;15.77;;;7.00;78.80;;;-142.21;100.00;112049.66;6245148;22;20264;-78
2022/01/28 07:57:01;;;;;;;23.52;17.00;;;7.00;78.80;;;-142.21;100.00;112049.66;6245893;23;20177;-78
2022/01/28 07:59:28;;;;;;;25.30;16.50;;;7.10;78.90;;;-142.21;100.00;112049.66;6245048;23;20177;-77
2022/01/28 08:01:56;;;;;;;25.92;17.23;;;7.10;78.60;;;-142.21;100.00;112049.66;6244423;23;20203;-76
2022/01/28 08:04:23;;;;;;;25.08;16.42;;;7.10;78.50;;;-142.21;100.00;112049.66;6245263;23;20177;-78
2022/01/28 08:06:51;;;;;;;24.52;16.55;;;7.10;78.60;;;-142.21;100.00;112049.66;6245582;23;20248;-76
2022/01/28 08:09:19;;;;;;;21.33;15.73;;;7.10;78.60;;;-142.21;100.00;112049.66;6245743;23;20225;-78
2022/01/28 08:11:46;;;;;;;22.95;15.98;;;7.20;78.60;;;-142.21;100.00;112049.66;6246267;22;20642;-78
2022/01/28 08:14:14;;;;;;;22.65;15.73;;;7.20;78.50;;;-142.21;100.00;112049.66;6246272;23;20174;-79
2022/01/28 08:16:41;;;;;;;22.83;16.08;;;7.20;78.20;;;-142.21;100.00;112049.66;6245354;23;20173;-77
2022/01/28 08:19:09;;;;;;;21.20;15.13;;;7.30;78.20;;;-142.21;100.00;112049.66;6244416;23;20177;-78
2022/01/28 08:21:37;;;;;;;21.08;15.25;;;7.40;77.80;;;-142.21;100.00;112049.66;6245117;23;20173;-77
2022/01/28 08:24:06;;;;;;;21.80;15.23;;;7.50;77.60;;;-142.21;100.00;112049.66;6245660;23;20238;-77
2022/01/28 08:26:33;;;;;;;21.73;15.33;;;7.50;77.60;;;-142.21;100.00;112049.66;6245225;23;20896;-80
2022/01/28 08:29:01;;;;;;;21.33;15.63;;;7.60;77.50;;;-142.21;100.00;112049.66;6245602;23;20392;-78
2022/01/28 08:31:28;;;;;;;20.77;15.03;;;7.50;77.20;;;-142.21;100.00;112049.66;6246012;22;20204;-78
2022/01/28 08:33:56;;;;;;;21.38;15.13;;;7.60;77.20;;;-142.21;100.00;112049.66;6245520;23;20493;-79
2022/01/28 08:36:23;;;;;;;20.37;14.27;;;7.60;77.00;;;-142.21;100.00;112049.66;6245533;22;20170;-78
2022/01/28 08:38:54;;;;;;;20.00;14.65;;;7.60;76.90;;;-142.21;100.00;112049.66;6244511;23;20412;-78
2022/01/28 08:41:23;;;;;;;24.48;16.80;;;7.70;76.80;;;-142.21;100.00;112049.66;6245196;22;20175;-78
2022/01/28 08:43:51;;;;;;;24.65;15.65;;;7.70;76.70;;;-142.21;100.00;112049.66;6245529;23;20177;-80
2022/01/28 08:46:18;;;;;;;22.13;15.47;;;7.70;76.70;;;-142.21;100.00;112049.66;6245851;23;20177;-79
2022/01/28 08:48:47;;;;;;;21.43;14.73;;;7.80;76.30;;;-142.21;100.00;112049.66;6246533;23;20412;-79
2022/01/28 08:51:14;;;;;;;20.67;15.90;;;7.90;76.20;;;-142.21;100.00;112049.66;6245903;22;20444;-78
2022/01/28 08:53:42;;;;;;;18.33;13.43;;;8.00;76.80;;;-142.21;100.00;112049.66;6246068;23;20446;-78
2022/01/28 08:56:10;;;;;;;23.63;15.60;;;7.90;75.80;;;-142.21;100.00;112049.66;6255403;22;20430;-80
2022/01/28 08:58:39;;;;;;;23.83;16.37;;;7.90;75.90;;;-142.21;100.00;112049.66;6262278;23;20392;-80
2022/01/28 09:01:06;;;;;;;19.57;14.73;;;7.90;76.10;;;-142.21;100.00;112049.66;6246540;23;20416;-78
2022/01/28 09:03:34;;;;;;;22.03;15.43;;;8.00;75.80;;;-142.21;100.00;112049.66;6252558;23;20416;-79
2022/01/28 09:06:01;;;;;;;24.20;15.80;;;8.00;75.80;;;-142.21;100.00;112049.66;6257054;23;20411;-78
2022/01/28 09:08:29;;;;;;;21.48;15.45;;;8.00;75.50;;;-142.21;100.00;112049.66;6255527;23;20407;-78
2022/01/28 09:11:08;;;;;;;18.97;14.17;;;8.10;76.10;;;-142.21;100.00;112049.66;6247177;23;20212;-77
2022/01/28 09:13:38;;;;;;;19.93;14.40;;;8.10;75.40;;;-142.21;100.00;112049.66;6246305;23;20407;-78
2022/01/28 09:16:07;;;;;;;19.83;14.63;;;8.00;75.20;;;-142.21;100.00;112049.66;6246697;23;20482;-78
2022/01/28 09:18:35;;;;;;;21.63;15.07;;;8.10;75.40;;;-142.21;100.00;112049.66;6247873;22;20440;-79
2022/01/28 09:21:02;;;;;;;19.00;13.83;;;8.10;75.10;;;-142.21;100.00;112049.66;6247539;23;20396;-78
2022/01/28 09:23:29;;;;;;;20.27;14.80;;;8.10;75.10;;;-142.21;100.00;112049.66;6247465;23;20449;-79
2022/01/28 09:25:57;;;;;;;24.77;14.50;;;8.20;75.20;;;-142.21;100.00;112049.66;6247969;23;20457;-78
2022/01/28 09:28:24;;;;;;;19.90;14.23;;;8.20;75.00;;;-142.21;100.00;112049.66;6246999;23;20960;-78
2022/01/28 09:30:52;;;;;;;21.03;14.40;;;8.30;74.90;;;-142.21;100.00;112049.66;6246987;22;20804;-77
2022/01/28 09:33:21;;;;;;;19.33;14.47;;;8.30;74.90;;;-142.21;100.00;112049.66;6246877;22;20473;-78
2022/01/28 09:35:50;;;;;;;20.87;14.83;;;8.40;74.80;;;-142.21;100.00;112049.66;6247089;23;20772;-77
2022/01/28 09:38:18;;;;;;;21.13;15.00;;;8.50;74.80;;;-142.21;100.00;112049.66;6246828;23;20449;-78
2022/01/28 09:40:45;;;;;;;19.63;14.53;;;8.50;74.20;;;-142.21;100.00;112049.66;6247895;22;20458;-79
2022/01/28 09:43:13;;;;;;;20.07;14.73;;;8.50;73.70;;;-142.21;100.00;112049.66;6247151;23;20477;-80
2022/01/28 09:45:41;;;;;;;18.27;13.93;;;8.50;73.90;;;-142.21;100.00;112049.66;6246780;23;20416;-77
2022/01/28 09:48:09;;;;;;;20.20;14.23;;;8.40;74.30;;;-142.21;100.00;112049.66;6247268;23;20786;-77
2022/01/28 09:50:38;;;;;;;18.67;14.00;;;8.50;74.00;;;-142.21;100.00;112049.66;6246420;22;20815;-79
2022/01/28 09:54:00;;;;;;;19.63;14.27;;;8.60;74.00;;;-142.21;100.00;112049.66;6247814;23;20470;-80
2022/01/28 09:56:30;;;;;;;19.00;13.43;;;8.70;73.60;;;-142.21;100.00;112049.66;6246382;23;20477;-78
2022/01/28 09:58:59;;;;;;;16.93;12.97;;;8.80;73.60;;;-142.21;100.00;112049.66;6247224;23;20403;-79
2022/01/28 10:01:28;;;;;;;19.50;14.13;;;8.80;73.00;;;-142.21;100.00;112049.66;6246962;22;20485;-78
2022/01/28 10:04:04;;;;;;;18.93;14.20;;;8.80;72.80;;;-142.21;100.00;112049.66;6246851;23;20915;-78
2022/01/28 10:06:34;;;;;;;17.87;13.33;;;8.70;73.00;;;-142.21;100.00;112049.66;6247133;23;20422;-78
2022/01/28 10:09:08;;;;;;;19.13;13.73;;;8.70;73.30;;;-142.21;100.00;112049.66;6247305;23;20404;-78
2022/01/28 10:11:37;;;;;;;18.80;14.50;;;8.70;73.60;;;-142.21;100.00;112049.66;6245545;23;20438;-78
2022/01/28 10:14:11;;;;;;;17.77;13.80;;;8.70;73.10;;;-142.21;100.00;112049.66;6246443;23;20416;-78
2022/01/28 10:16:38;;;;;;;17.47;13.40;;;8.70;73.10;;;-142.21;100.00;112049.66;6246334;23;20412;-78
2022/01/28 10:19:08;;;;;;;17.90;13.60;;;8.70;72.90;;;-142.21;100.00;112049.66;6246404;23;20412;-78
2022/01/28 10:21:38;;;;;;;19.07;13.73;;;8.70;73.00;;;-142.21;100.00;112049.66;6247262;22;20935;-76
2022/01/28 10:24:11;;;;;;;18.57;13.33;;;8.70;72.90;;;-142.21;100.00;112049.66;6247513;22;20462;-83
2022/01/28 10:26:43;;;;;;;19.07;13.60;;;8.70;72.60;;;-142.21;100.00;112049.66;6247505;23;20408;-78
2022/01/28 10:29:14;;;;;;;18.10;12.93;;;8.70;73.00;;;-142.21;100.00;112049.66;6247866;23;20423;-78
2022/01/28 10:31:52;;;;;;;17.47;12.83;;;8.70;73.60;;;-142.21;100.00;112049.66;6246866;23;20448;-80
2022/01/28 10:34:30;;;;;;;17.57;12.73;;;8.70;73.20;;;-142.21;100.00;112049.66;6246503;23;20412;-78
2022/01/28 10:37:15;;;;;;;18.63;13.43;;;8.90;73.10;;;-142.21;100.00;112049.66;6246340;23;20407;-79
2022/01/28 10:39:52;;;;;;;17.77;12.20;;;8.90;72.40;;;-142.21;100.00;112049.66;6247152;23;20515;-80
2022/01/28 10:42:33;;;;;;;15.80;12.87;;;8.90;72.40;;;-142.21;100.00;112049.66;6245214;22;20503;-78
2022/01/28 10:45:03;;;;;;;19.17;13.30;;;8.90;72.40;;;-142.21;100.00;112049.66;6246780;23;20866;-78
2022/01/28 10:47:33;;;;;;;20.27;13.97;;;9.00;72.20;;;-142.21;100.00;112049.66;6247419;23;20900;-77
2022/01/28 10:50:01;;;;;;;18.50;14.30;;;9.10;72.60;;;-142.21;100.00;112049.66;6247286;23;20411;-80
2022/01/28 10:52:35;;;;;;;17.73;12.93;;;9.40;72.00;;;-142.21;100.00;112049.66;6248038;23;21093;-79